sensor_id;sensor_type;location;lat;lon;timestamp;temperature;humidity
14783;DHT22;7483;50.498;12.138;2022-07-29T00:01:00;18.00;98.50
14783;DHT22;7483;50.498;12.138;2022-07-29T00:03:28;18.10;98.50
14783;DHT22;7483;50.498;12.138;2022-07-29T00:05:56;18.10;98.30
14783;DHT22;7483;50.498;12.138;2022-07-29T00:08:26;18.10;98.20
14783;DHT22;7483;50.498;12.138;2022-07-29T00:10:55;18.10;98.20
14783;DHT22;7483;50.498;12.138;2022-07-29T00:13:23;18.10;98.10
14783;DHT22;7483;50.498;12.138;2022-07-29T00:15:58;18.20;98.00
14783;DHT22;7483;50.498;12.138;2022-07-29T00:18:30;18.20;98.00
14783;DHT22;7483;50.498;12.138;2022-07-29T00:20:59;18.20;98.00
14783;DHT22;7483;50.498;12.138;2022-07-29T00:23:27;18.30;98.30
14783;DHT22;7483;50.498;12.138;2022-07-29T00:26:01;18.30;98.20
14783;DHT22;7483;50.498;12.138;2022-07-29T00:28:29;18.20;98.50
14783;DHT22;7483;50.498;12.138;2022-07-29T00:30:57;17.90;98.60
14783;DHT22;7483;50.498;12.138;2022-07-29T00:33:26;17.90;99.10
14783;DHT22;7483;50.498;12.138;2022-07-29T00:35:54;17.80;99.40
14783;DHT22;7483;50.498;12.138;2022-07-29T00:38:22;17.80;99.70
14783;DHT22;7483;50.498;12.138;2022-07-29T00:40:50;17.80;99.80
14783;DHT22;7483;50.498;12.138;2022-07-29T00:43:20;17.80;99.90
14783;DHT22;7483;50.498;12.138;2022-07-29T00:45:48;17.80;99.90
14783;DHT22;7483;50.498;12.138;2022-07-29T00:48:16;17.80;99.90
14783;DHT22;7483;50.498;12.138;2022-07-29T00:50:44;17.80;99.90
14783;DHT22;7483;50.498;12.138;2022-07-29T00:53:12;17.60;99.90
14783;DHT22;7483;50.498;12.138;2022-07-29T00:55:40;17.60;99.90
14783;DHT22;7483;50.498;12.138;2022-07-29T00:58:09;17.50;99.90
14783;DHT22;7483;50.498;12.138;2022-07-29T01:00:41;17.30;99.90
14783;DHT22;7483;50.498;12.138;2022-07-29T01:03:11;17.30;99.90
14783;DHT22;7483;50.498;12.138;2022-07-29T01:05:41;17.20;99.90
14783;DHT22;7483;50.498;12.138;2022-07-29T01:08:17;17.30;99.90
14783;DHT22;7483;50.498;12.138;2022-07-29T01:10:47;17.30;99.90
14783;DHT22;7483;50.498;12.138;2022-07-29T01:13:17;17.40;99.90
14783;DHT22;7483;50.498;12.138;2022-07-29T01:15:51;17.40;99.90
14783;DHT22;7483;50.498;12.138;2022-07-29T01:18:28;17.40;99.90
14783;DHT22;7483;50.498;12.138;2022-07-29T01:21:23;17.30;99.90
14783;DHT22;7483;50.498;12.138;2022-07-29T01:24:18;17.40;99.90
14783;DHT22;7483;50.498;12.138;2022-07-29T01:26:59;17.30;99.90
14783;DHT22;7483;50.498;12.138;2022-07-29T01:29:46;17.30;99.90
14783;DHT22;7483;50.498;12.138;2022-07-29T01:32:26;17.30;99.90
14783;DHT22;7483;50.498;12.138;2022-07-29T01:35:02;17.30;99.90
14783;DHT22;7483;50.498;12.138;2022-07-29T01:37:39;17.10;99.90
14783;DHT22;7483;50.498;12.138;2022-07-29T01:40:17;17.10;99.90
14783;DHT22;7483;50.498;12.138;2022-07-29T01:42:50;17.10;99.90
14783;DHT22;7483;50.498;12.138;2022-07-29T01:45:26;17.10;99.90
14783;DHT22;7483;50.498;12.138;2022-07-29T01:48:03;17.00;99.90
14783;DHT22;7483;50.498;12.138;2022-07-29T01:50:44;17.00;99.90
14783;DHT22;7483;50.498;12.138;2022-07-29T01:53:21;17.00;99.90
14783;DHT22;7483;50.498;12.138;2022-07-29T01:55:55;17.00;99.90
14783;DHT22;7483;50.498;12.138;2022-07-29T01:58:28;16.90;99.90
14783;DHT22;7483;50.498;12.138;2022-07-29T02:01:01;16.90;99.90
14783;DHT22;7483;50.498;12.138;2022-07-29T02:03:31;17.00;99.90
14783;DHT22;7483;50.498;12.138;2022-07-29T02:06:01;17.00;99.90
14783;DHT22;7483;50.498;12.138;2022-07-29T02:08:32;17.00;99.90
14783;DHT22;7483;50.498;12.138;2022-07-29T02:11:03;17.00;99.90
14783;DHT22;7483;50.498;12.138;2022-07-29T02:13:34;17.10;99.90
14783;DHT22;7483;50.498;12.138;2022-07-29T02:16:07;17.10;99.90
14783;DHT22;7483;50.498;12.138;2022-07-29T02:18:39;17.10;99.90
14783;DHT22;7483;50.498;12.138;2022-07-29T02:21:10;17.20;99.90
14783;DHT22;7483;50.498;12.138;2022-07-29T02:23:42;17.10;99.90
14783;DHT22;7483;50.498;12.138;2022-07-29T02:26:18;17.10;99.90
14783;DHT22;7483;50.498;12.138;2022-07-29T02:28:48;17.10;99.90
14783;DHT22;7483;50.498;12.138;2022-07-29T02:31:24;17.10;99.90
14783;DHT22;7483;50.498;12.138;2022-07-29T02:33:54;17.00;99.90
14783;DHT22;7483;50.498;12.138;2022-07-29T02:36:23;17.00;99.90
14783;DHT22;7483;50.498;12.138;2022-07-29T02:38:54;17.00;99.90
14783;DHT22;7483;50.498;12.138;2022-07-29T02:41:28;16.90;99.90
14783;DHT22;7483;50.498;12.138;2022-07-29T02:44:06;16.90;99.90
14783;DHT22;7483;50.498;12.138;2022-07-29T02:46:43;17.00;99.90
14783;DHT22;7483;50.498;12.138;2022-07-29T02:49:18;17.00;99.90
14783;DHT22;7483;50.498;12.138;2022-07-29T02:52:01;17.10;99.90
14783;DHT22;7483;50.498;12.138;2022-07-29T02:54:35;17.10;99.90
14783;DHT22;7483;50.498;12.138;2022-07-29T02:57:11;17.00;99.90
14783;DHT22;7483;50.498;12.138;2022-07-29T02:59:48;16.80;99.90
14783;DHT22;7483;50.498;12.138;2022-07-29T03:02:20;16.70;99.90
14783;DHT22;7483;50.498;12.138;2022-07-29T03:04:50;16.60;99.90
14783;DHT22;7483;50.498;12.138;2022-07-29T03:07:21;16.70;99.90
14783;DHT22;7483;50.498;12.138;2022-07-29T03:09:50;16.50;99.90
14783;DHT22;7483;50.498;12.138;2022-07-29T03:12:19;16.50;99.90
14783;DHT22;7483;50.498;12.138;2022-07-29T03:14:48;16.50;99.90
14783;DHT22;7483;50.498;12.138;2022-07-29T03:17:16;16.50;99.90
14783;DHT22;7483;50.498;12.138;2022-07-29T03:19:46;16.50;99.90
14783;DHT22;7483;50.498;12.138;2022-07-29T03:22:15;16.50;99.90
14783;DHT22;7483;50.498;12.138;2022-07-29T03:24:44;16.50;99.90
14783;DHT22;7483;50.498;12.138;2022-07-29T03:27:13;16.30;99.90
14783;DHT22;7483;50.498;12.138;2022-07-29T03:29:42;16.40;99.90
14783;DHT22;7483;50.498;12.138;2022-07-29T03:32:16;16.30;99.90
14783;DHT22;7483;50.498;12.138;2022-07-29T03:34:52;16.30;99.90
14783;DHT22;7483;50.498;12.138;2022-07-29T03:37:20;16.20;99.90
14783;DHT22;7483;50.498;12.138;2022-07-29T03:39:49;16.10;99.90
14783;DHT22;7483;50.498;12.138;2022-07-29T03:42:21;16.10;99.90
14783;DHT22;7483;50.498;12.138;2022-07-29T03:44:59;16.20;99.90
14783;DHT22;7483;50.498;12.138;2022-07-29T03:47:31;16.20;99.90
14783;DHT22;7483;50.498;12.138;2022-07-29T03:50:19;16.30;99.90
14783;DHT22;7483;50.498;12.138;2022-07-29T03:52:49;16.20;99.90
14783;DHT22;7483;50.498;12.138;2022-07-29T03:55:17;16.30;99.90
14783;DHT22;7483;50.498;12.138;2022-07-29T03:57:46;16.40;99.90
14783;DHT22;7483;50.498;12.138;2022-07-29T04:00:17;16.40;99.90
14783;DHT22;7483;50.498;12.138;2022-07-29T04:02:46;16.40;99.90
14783;DHT22;7483;50.498;12.138;2022-07-29T04:05:16;16.40;99.90
14783;DHT22;7483;50.498;12.138;2022-07-29T04:07:47;16.40;99.90
14783;DHT22;7483;50.498;12.138;2022-07-29T04:10:17;16.30;99.90
14783;DHT22;7483;50.498;12.138;2022-07-29T04:12:57;16.40;99.90
14783;DHT22;7483;50.498;12.138;2022-07-29T04:15:25;16.50;99.90
14783;DHT22;7483;50.498;12.138;2022-07-29T04:17:57;16.50;99.90
14783;DHT22;7483;50.498;12.138;2022-07-29T04:20:27;16.40;99.90
14783;DHT22;7483;50.498;12.138;2022-07-29T04:22:55;16.50;99.90
14783;DHT22;7483;50.498;12.138;2022-07-29T04:25:23;16.50;99.90
14783;DHT22;7483;50.498;12.138;2022-07-29T04:27:51;16.40;99.90
14783;DHT22;7483;50.498;12.138;2022-07-29T04:30:29;16.30;99.90
14783;DHT22;7483;50.498;12.138;2022-07-29T04:32:58;16.20;99.90
14783;DHT22;7483;50.498;12.138;2022-07-29T04:35:29;16.20;99.90
14783;DHT22;7483;50.498;12.138;2022-07-29T04:38:05;16.10;99.90
14783;DHT22;7483;50.498;12.138;2022-07-29T04:40:41;16.10;99.90
14783;DHT22;7483;50.498;12.138;2022-07-29T04:43:09;16.20;99.90
14783;DHT22;7483;50.498;12.138;2022-07-29T04:45:39;16.30;99.90
14783;DHT22;7483;50.498;12.138;2022-07-29T04:48:08;16.30;99.90
14783;DHT22;7483;50.498;12.138;2022-07-29T04:50:39;16.40;99.90
14783;DHT22;7483;50.498;12.138;2022-07-29T04:53:08;16.40;99.90
14783;DHT22;7483;50.498;12.138;2022-07-29T04:55:36;16.40;99.90
14783;DHT22;7483;50.498;12.138;2022-07-29T04:58:05;16.30;99.90
14783;DHT22;7483;50.498;12.138;2022-07-29T05:00:34;16.30;99.90
14783;DHT22;7483;50.498;12.138;2022-07-29T05:03:02;16.40;99.90
14783;DHT22;7483;50.498;12.138;2022-07-29T05:05:30;16.50;99.90
14783;DHT22;7483;50.498;12.138;2022-07-29T05:08:00;16.60;99.90
14783;DHT22;7483;50.498;12.138;2022-07-29T05:10:29;16.70;99.90
14783;DHT22;7483;50.498;12.138;2022-07-29T05:12:57;16.70;99.90
14783;DHT22;7483;50.498;12.138;2022-07-29T05:15:25;16.80;99.90
14783;DHT22;7483;50.498;12.138;2022-07-29T05:17:53;16.80;99.90
14783;DHT22;7483;50.498;12.138;2022-07-29T05:20:21;16.80;99.90
14783;DHT22;7483;50.498;12.138;2022-07-29T05:22:52;16.80;99.90
14783;DHT22;7483;50.498;12.138;2022-07-29T05:25:22;16.90;99.90
14783;DHT22;7483;50.498;12.138;2022-07-29T05:28:10;17.10;99.90
14783;DHT22;7483;50.498;12.138;2022-07-29T05:30:38;17.10;99.90
14783;DHT22;7483;50.498;12.138;2022-07-29T05:33:06;17.10;99.90
14783;DHT22;7483;50.498;12.138;2022-07-29T05:35:54;17.20;99.90
14783;DHT22;7483;50.498;12.138;2022-07-29T05:38:26;17.30;99.90
14783;DHT22;7483;50.498;12.138;2022-07-29T05:40:57;17.30;99.90
14783;DHT22;7483;50.498;12.138;2022-07-29T05:43:26;17.30;99.90
14783;DHT22;7483;50.498;12.138;2022-07-29T05:45:54;17.30;99.90
14783;DHT22;7483;50.498;12.138;2022-07-29T05:48:23;17.40;99.90
14783;DHT22;7483;50.498;12.138;2022-07-29T05:50:51;17.40;99.90
14783;DHT22;7483;50.498;12.138;2022-07-29T05:53:19;17.40;99.90
14783;DHT22;7483;50.498;12.138;2022-07-29T05:55:48;17.50;99.90
14783;DHT22;7483;50.498;12.138;2022-07-29T05:58:17;17.50;99.90
14783;DHT22;7483;50.498;12.138;2022-07-29T06:00:46;17.50;99.90
14783;DHT22;7483;50.498;12.138;2022-07-29T06:03:14;17.60;99.90
14783;DHT22;7483;50.498;12.138;2022-07-29T06:05:42;17.70;99.90
14783;DHT22;7483;50.498;12.138;2022-07-29T06:08:11;17.80;99.90
14783;DHT22;7483;50.498;12.138;2022-07-29T06:10:38;18.00;99.90
14783;DHT22;7483;50.498;12.138;2022-07-29T06:13:06;18.00;99.90
14783;DHT22;7483;50.498;12.138;2022-07-29T06:15:36;18.00;99.90
14783;DHT22;7483;50.498;12.138;2022-07-29T06:18:04;18.10;99.90
14783;DHT22;7483;50.498;12.138;2022-07-29T06:20:36;18.10;99.90
14783;DHT22;7483;50.498;12.138;2022-07-29T06:23:04;18.20;99.90
14783;DHT22;7483;50.498;12.138;2022-07-29T06:25:32;18.10;99.90
14783;DHT22;7483;50.498;12.138;2022-07-29T06:28:02;18.10;99.90
14783;DHT22;7483;50.498;12.138;2022-07-29T06:30:30;18.10;99.90
14783;DHT22;7483;50.498;12.138;2022-07-29T06:33:00;18.10;99.90
14783;DHT22;7483;50.498;12.138;2022-07-29T06:35:28;18.20;99.90
14783;DHT22;7483;50.498;12.138;2022-07-29T06:38:08;18.20;99.90
14783;DHT22;7483;50.498;12.138;2022-07-29T06:40:56;18.20;99.90
14783;DHT22;7483;50.498;12.138;2022-07-29T06:43:30;18.20;99.90
14783;DHT22;7483;50.498;12.138;2022-07-29T06:46:01;18.20;99.90
14783;DHT22;7483;50.498;12.138;2022-07-29T06:48:33;18.30;99.90
14783;DHT22;7483;50.498;12.138;2022-07-29T06:51:03;18.40;99.90
14783;DHT22;7483;50.498;12.138;2022-07-29T06:53:32;18.40;99.90
14783;DHT22;7483;50.498;12.138;2022-07-29T06:56:02;18.40;99.90
14783;DHT22;7483;50.498;12.138;2022-07-29T06:58:31;18.50;99.90
14783;DHT22;7483;50.498;12.138;2022-07-29T07:01:02;18.40;99.90
14783;DHT22;7483;50.498;12.138;2022-07-29T07:03:33;18.50;99.90
14783;DHT22;7483;50.498;12.138;2022-07-29T07:06:01;18.60;99.90
14783;DHT22;7483;50.498;12.138;2022-07-29T07:08:29;18.60;99.90
14783;DHT22;7483;50.498;12.138;2022-07-29T07:10:57;18.70;99.90
14783;DHT22;7483;50.498;12.138;2022-07-29T07:13:26;18.80;99.90
14783;DHT22;7483;50.498;12.138;2022-07-29T07:15:54;18.90;99.90
14783;DHT22;7483;50.498;12.138;2022-07-29T07:18:22;19.00;99.90
14783;DHT22;7483;50.498;12.138;2022-07-29T07:20:52;19.10;99.90
14783;DHT22;7483;50.498;12.138;2022-07-29T07:23:20;19.30;99.90
14783;DHT22;7483;50.498;12.138;2022-07-29T07:25:48;19.40;99.90
14783;DHT22;7483;50.498;12.138;2022-07-29T07:28:16;19.50;99.90
14783;DHT22;7483;50.498;12.138;2022-07-29T07:30:50;19.70;99.90
14783;DHT22;7483;50.498;12.138;2022-07-29T07:33:18;19.90;99.90
14783;DHT22;7483;50.498;12.138;2022-07-29T07:35:46;20.10;99.90
14783;DHT22;7483;50.498;12.138;2022-07-29T07:38:16;20.10;99.90
14783;DHT22;7483;50.498;12.138;2022-07-29T07:40:44;20.40;99.90
14783;DHT22;7483;50.498;12.138;2022-07-29T07:43:13;20.50;99.90
14783;DHT22;7483;50.498;12.138;2022-07-29T07:45:40;20.70;99.90
14783;DHT22;7483;50.498;12.138;2022-07-29T07:48:09;21.00;99.90
14783;DHT22;7483;50.498;12.138;2022-07-29T07:50:37;21.20;99.90
14783;DHT22;7483;50.498;12.138;2022-07-29T07:53:05;21.50;99.90
14783;DHT22;7483;50.498;12.138;2022-07-29T07:55:39;21.60;99.90
14783;DHT22;7483;50.498;12.138;2022-07-29T07:58:28;21.80;99.90
14783;DHT22;7483;50.498;12.138;2022-07-29T08:00:56;22.20;99.80
14783;DHT22;7483;50.498;12.138;2022-07-29T08:03:24;22.50;99.40
14783;DHT22;7483;50.498;12.138;2022-07-29T08:05:52;22.60;99.20
14783;DHT22;7483;50.498;12.138;2022-07-29T08:08:21;22.80;98.90
14783;DHT22;7483;50.498;12.138;2022-07-29T08:10:50;22.80;98.30
14783;DHT22;7483;50.498;12.138;2022-07-29T08:13:24;23.00;98.60
14783;DHT22;7483;50.498;12.138;2022-07-29T08:15:55;23.10;98.70
14783;DHT22;7483;50.498;12.138;2022-07-29T08:18:29;23.00;98.00
14783;DHT22;7483;50.498;12.138;2022-07-29T08:20:58;23.10;98.00
14783;DHT22;7483;50.498;12.138;2022-07-29T08:23:27;23.10;98.00
14783;DHT22;7483;50.498;12.138;2022-07-29T08:26:15;23.30;97.90
14783;DHT22;7483;50.498;12.138;2022-07-29T08:28:45;23.40;97.40
14783;DHT22;7483;50.498;12.138;2022-07-29T08:31:18;23.70;97.80
14783;DHT22;7483;50.498;12.138;2022-07-29T08:33:47;23.90;97.60
14783;DHT22;7483;50.498;12.138;2022-07-29T08:36:15;24.20;97.00
14783;DHT22;7483;50.498;12.138;2022-07-29T08:38:44;24.60;96.30
14783;DHT22;7483;50.498;12.138;2022-07-29T08:41:12;24.80;95.90
14783;DHT22;7483;50.498;12.138;2022-07-29T08:43:42;25.10;95.40
14783;DHT22;7483;50.498;12.138;2022-07-29T08:46:10;25.20;95.30
14783;DHT22;7483;50.498;12.138;2022-07-29T08:48:39;25.30;95.20
14783;DHT22;7483;50.498;12.138;2022-07-29T08:51:13;25.50;95.10
14783;DHT22;7483;50.498;12.138;2022-07-29T08:53:46;25.60;94.70
14783;DHT22;7483;50.498;12.138;2022-07-29T08:56:17;25.80;94.90
14783;DHT22;7483;50.498;12.138;2022-07-29T08:58:48;26.00;94.50
14783;DHT22;7483;50.498;12.138;2022-07-29T09:01:23;26.30;94.50
14783;DHT22;7483;50.498;12.138;2022-07-29T09:04:10;26.50;93.80
14783;DHT22;7483;50.498;12.138;2022-07-29T09:06:44;26.80;93.80
14783;DHT22;7483;50.498;12.138;2022-07-29T09:09:14;27.00;93.50
14783;DHT22;7483;50.498;12.138;2022-07-29T09:11:43;27.20;93.20
14783;DHT22;7483;50.498;12.138;2022-07-29T09:14:13;27.40;93.30
14783;DHT22;7483;50.498;12.138;2022-07-29T09:16:49;27.50;92.90
14783;DHT22;7483;50.498;12.138;2022-07-29T09:19:22;27.50;92.80
14783;DHT22;7483;50.498;12.138;2022-07-29T09:21:55;27.50;92.40
14783;DHT22;7483;50.498;12.138;2022-07-29T09:24:40;27.60;92.70
14783;DHT22;7483;50.498;12.138;2022-07-29T09:27:20;27.70;92.70
14783;DHT22;7483;50.498;12.138;2022-07-29T09:29:57;27.80;92.00
14783;DHT22;7483;50.498;12.138;2022-07-29T09:32:26;27.70;92.40
14783;DHT22;7483;50.498;12.138;2022-07-29T09:35:16;27.70;92.40
14783;DHT22;7483;50.498;12.138;2022-07-29T09:37:45;27.80;92.10
14783;DHT22;7483;50.498;12.138;2022-07-29T09:40:16;27.60;92.10
14783;DHT22;7483;50.498;12.138;2022-07-29T09:42:46;27.70;92.40
14783;DHT22;7483;50.498;12.138;2022-07-29T09:45:28;27.90;92.10
14783;DHT22;7483;50.498;12.138;2022-07-29T09:47:57;27.80;91.70
14783;DHT22;7483;50.498;12.138;2022-07-29T09:50:37;27.90;92.00
14783;DHT22;7483;50.498;12.138;2022-07-29T09:53:06;27.90;92.00
14783;DHT22;7483;50.498;12.138;2022-07-29T09:55:46;27.90;91.70
14783;DHT22;7483;50.498;12.138;2022-07-29T09:58:19;27.80;91.70
14783;DHT22;7483;50.498;12.138;2022-07-29T10:00:51;28.00;91.50
14783;DHT22;7483;50.498;12.138;2022-07-29T10:03:21;27.90;91.40
14783;DHT22;7483;50.498;12.138;2022-07-29T10:06:04;27.90;91.70
14783;DHT22;7483;50.498;12.138;2022-07-29T10:08:33;27.90;91.70
14783;DHT22;7483;50.498;12.138;2022-07-29T10:11:10;28.00;91.70
14783;DHT22;7483;50.498;12.138;2022-07-29T10:13:41;28.20;91.90
14783;DHT22;7483;50.498;12.138;2022-07-29T10:16:11;28.50;91.70
14783;DHT22;7483;50.498;12.138;2022-07-29T10:18:42;28.80;91.10
14783;DHT22;7483;50.498;12.138;2022-07-29T10:21:11;29.00;91.00
14783;DHT22;7483;50.498;12.138;2022-07-29T10:24:01;29.20;90.50
14783;DHT22;7483;50.498;12.138;2022-07-29T10:26:29;29.20;90.50
14783;DHT22;7483;50.498;12.138;2022-07-29T10:28:58;29.30;90.40
14783;DHT22;7483;50.498;12.138;2022-07-29T10:31:33;29.30;90.40
14783;DHT22;7483;50.498;12.138;2022-07-29T10:34:13;29.60;90.40
14783;DHT22;7483;50.498;12.138;2022-07-29T10:36:54;29.70;90.20
14783;DHT22;7483;50.498;12.138;2022-07-29T10:39:40;29.70;89.40
14783;DHT22;7483;50.498;12.138;2022-07-29T10:42:18;29.50;90.00
14783;DHT22;7483;50.498;12.138;2022-07-29T10:45:00;29.20;90.30
14783;DHT22;7483;50.498;12.138;2022-07-29T10:47:31;28.90;90.50
14783;DHT22;7483;50.498;12.138;2022-07-29T10:50:04;28.60;90.60
14783;DHT22;7483;50.498;12.138;2022-07-29T10:52:52;28.60;90.80
14783;DHT22;7483;50.498;12.138;2022-07-29T10:55:31;28.70;90.50
14783;DHT22;7483;50.498;12.138;2022-07-29T10:58:12;28.60;90.50
14783;DHT22;7483;50.498;12.138;2022-07-29T11:00:44;28.70;90.40
14783;DHT22;7483;50.498;12.138;2022-07-29T11:03:45;28.60;90.30
14783;DHT22;7483;50.498;12.138;2022-07-29T11:06:16;28.70;90.60
14783;DHT22;7483;50.498;12.138;2022-07-29T11:09:15;28.70;90.60
14783;DHT22;7483;50.498;12.138;2022-07-29T11:11:51;28.70;90.30
14783;DHT22;7483;50.498;12.138;2022-07-29T11:14:58;28.80;90.30
14783;DHT22;7483;50.498;12.138;2022-07-29T11:17:28;29.00;90.00
14783;DHT22;7483;50.498;12.138;2022-07-29T11:20:33;29.10;90.00
14783;DHT22;7483;50.498;12.138;2022-07-29T11:23:22;29.00;89.90
14783;DHT22;7483;50.498;12.138;2022-07-29T11:26:15;29.10;89.50
14783;DHT22;7483;50.498;12.138;2022-07-29T11:28:56;29.60;88.90
14783;DHT22;7483;50.498;12.138;2022-07-29T11:31:35;29.60;88.10
14783;DHT22;7483;50.498;12.138;2022-07-29T11:34:20;29.50;88.10
14783;DHT22;7483;50.498;12.138;2022-07-29T11:37:14;29.90;87.80
14783;DHT22;7483;50.498;12.138;2022-07-29T11:39:46;30.30;86.80
14783;DHT22;7483;50.498;12.138;2022-07-29T11:42:40;30.20;86.10
14783;DHT22;7483;50.498;12.138;2022-07-29T11:45:26;30.30;86.20
14783;DHT22;7483;50.498;12.138;2022-07-29T11:48:17;30.20;86.30
14783;DHT22;7483;50.498;12.138;2022-07-29T11:50:57;30.10;86.70
14783;DHT22;7483;50.498;12.138;2022-07-29T11:53:28;30.10;86.50
14783;DHT22;7483;50.498;12.138;2022-07-29T11:55:59;30.00;86.30
14783;DHT22;7483;50.498;12.138;2022-07-29T11:58:30;29.90;86.30
14783;DHT22;7483;50.498;12.138;2022-07-29T12:00:59;30.10;86.40
14783;DHT22;7483;50.498;12.138;2022-07-29T12:03:32;30.10;85.90
14783;DHT22;7483;50.498;12.138;2022-07-29T12:06:10;30.20;85.70
14783;DHT22;7483;50.498;12.138;2022-07-29T12:08:42;30.30;84.80
14783;DHT22;7483;50.498;12.138;2022-07-29T12:11:18;30.30;85.50
14783;DHT22;7483;50.498;12.138;2022-07-29T12:13:49;30.60;85.20
14783;DHT22;7483;50.498;12.138;2022-07-29T12:16:19;30.40;84.50
14783;DHT22;7483;50.498;12.138;2022-07-29T12:19:00;30.50;84.80
14783;DHT22;7483;50.498;12.138;2022-07-29T12:21:36;30.90;84.90
14783;DHT22;7483;50.498;12.138;2022-07-29T12:24:23;31.20;83.80
14783;DHT22;7483;50.498;12.138;2022-07-29T12:26:55;31.40;82.70
14783;DHT22;7483;50.498;12.138;2022-07-29T12:29:25;31.40;82.00
14783;DHT22;7483;50.498;12.138;2022-07-29T12:32:00;31.40;81.90
14783;DHT22;7483;50.498;12.138;2022-07-29T12:34:30;31.10;80.50
14783;DHT22;7483;50.498;12.138;2022-07-29T12:36:58;30.70;81.90
14783;DHT22;7483;50.498;12.138;2022-07-29T12:39:28;30.70;81.80
14783;DHT22;7483;50.498;12.138;2022-07-29T12:41:56;30.70;81.30
14783;DHT22;7483;50.498;12.138;2022-07-29T12:44:44;29.90;81.80
14783;DHT22;7483;50.498;12.138;2022-07-29T12:47:14;29.20;83.40
14783;DHT22;7483;50.498;12.138;2022-07-29T12:49:44;29.20;84.20
14783;DHT22;7483;50.498;12.138;2022-07-29T12:52:28;28.90;85.90
14783;DHT22;7483;50.498;12.138;2022-07-29T12:54:58;28.60;87.80
14783;DHT22;7483;50.498;12.138;2022-07-29T12:57:27;28.40;87.60
14783;DHT22;7483;50.498;12.138;2022-07-29T13:00:00;28.10;88.20
14783;DHT22;7483;50.498;12.138;2022-07-29T13:02:31;28.00;89.10
14783;DHT22;7483;50.498;12.138;2022-07-29T13:05:06;27.80;90.00
14783;DHT22;7483;50.498;12.138;2022-07-29T13:07:36;27.70;90.20
14783;DHT22;7483;50.498;12.138;2022-07-29T13:10:21;27.60;90.40
14783;DHT22;7483;50.498;12.138;2022-07-29T13:13:04;27.00;92.60
14783;DHT22;7483;50.498;12.138;2022-07-29T13:15:35;26.50;93.40
14783;DHT22;7483;50.498;12.138;2022-07-29T13:18:04;26.20;94.40
14783;DHT22;7483;50.498;12.138;2022-07-29T13:20:34;25.70;94.90
14783;DHT22;7483;50.498;12.138;2022-07-29T13:23:02;24.70;96.40
14783;DHT22;7483;50.498;12.138;2022-07-29T13:25:32;24.30;97.90
14783;DHT22;7483;50.498;12.138;2022-07-29T13:28:00;23.60;99.90
14783;DHT22;7483;50.498;12.138;2022-07-29T13:30:28;22.60;99.90
14783;DHT22;7483;50.498;12.138;2022-07-29T13:32:56;22.00;99.90
14783;DHT22;7483;50.498;12.138;2022-07-29T13:35:25;21.50;99.90
14783;DHT22;7483;50.498;12.138;2022-07-29T13:37:57;21.20;99.90
14783;DHT22;7483;50.498;12.138;2022-07-29T13:40:25;21.00;99.90
14783;DHT22;7483;50.498;12.138;2022-07-29T13:43:03;21.10;99.90
14783;DHT22;7483;50.498;12.138;2022-07-29T13:45:31;21.30;99.90
14783;DHT22;7483;50.498;12.138;2022-07-29T13:47:59;21.40;99.90
14783;DHT22;7483;50.498;12.138;2022-07-29T13:50:27;21.50;99.90
14783;DHT22;7483;50.498;12.138;2022-07-29T13:52:57;21.60;99.90
14783;DHT22;7483;50.498;12.138;2022-07-29T13:55:25;21.60;99.90
14783;DHT22;7483;50.498;12.138;2022-07-29T13:57:53;21.70;99.90
14783;DHT22;7483;50.498;12.138;2022-07-29T14:00:24;21.80;99.90
14783;DHT22;7483;50.498;12.138;2022-07-29T14:02:52;22.10;99.90
14783;DHT22;7483;50.498;12.138;2022-07-29T14:05:20;22.30;99.90
14783;DHT22;7483;50.498;12.138;2022-07-29T14:07:48;22.30;99.90
14783;DHT22;7483;50.498;12.138;2022-07-29T14:10:18;22.30;99.90
14783;DHT22;7483;50.498;12.138;2022-07-29T14:12:46;22.40;99.90
14783;DHT22;7483;50.498;12.138;2022-07-29T14:15:14;22.40;99.90
14783;DHT22;7483;50.498;12.138;2022-07-29T14:17:42;22.40;99.90
14783;DHT22;7483;50.498;12.138;2022-07-29T14:20:10;22.30;99.90
14783;DHT22;7483;50.498;12.138;2022-07-29T14:22:38;22.30;99.90
14783;DHT22;7483;50.498;12.138;2022-07-29T14:25:10;22.30;99.90
14783;DHT22;7483;50.498;12.138;2022-07-29T14:27:42;22.30;99.90
14783;DHT22;7483;50.498;12.138;2022-07-29T14:30:11;22.40;99.90
14783;DHT22;7483;50.498;12.138;2022-07-29T14:32:40;22.50;99.90
14783;DHT22;7483;50.498;12.138;2022-07-29T14:35:08;22.60;99.90
14783;DHT22;7483;50.498;12.138;2022-07-29T14:37:37;22.60;99.90
14783;DHT22;7483;50.498;12.138;2022-07-29T14:40:07;22.70;99.90
14783;DHT22;7483;50.498;12.138;2022-07-29T14:42:36;22.90;99.90
14783;DHT22;7483;50.498;12.138;2022-07-29T14:45:08;22.90;99.90
14783;DHT22;7483;50.498;12.138;2022-07-29T14:47:37;23.00;99.90
14783;DHT22;7483;50.498;12.138;2022-07-29T14:50:07;23.10;99.90
14783;DHT22;7483;50.498;12.138;2022-07-29T14:52:36;23.10;99.90
14783;DHT22;7483;50.498;12.138;2022-07-29T14:55:05;23.20;99.90
14783;DHT22;7483;50.498;12.138;2022-07-29T14:57:46;23.20;99.90
14783;DHT22;7483;50.498;12.138;2022-07-29T15:00:16;23.40;99.90
14783;DHT22;7483;50.498;12.138;2022-07-29T15:02:45;23.70;99.90
14783;DHT22;7483;50.498;12.138;2022-07-29T15:05:28;23.90;99.90
14783;DHT22;7483;50.498;12.138;2022-07-29T15:07:56;24.20;99.90
14783;DHT22;7483;50.498;12.138;2022-07-29T15:10:25;24.40;99.90
14783;DHT22;7483;50.498;12.138;2022-07-29T15:12:53;24.50;99.90
14783;DHT22;7483;50.498;12.138;2022-07-29T15:15:23;24.50;99.90
14783;DHT22;7483;50.498;12.138;2022-07-29T15:17:51;24.50;99.90
14783;DHT22;7483;50.498;12.138;2022-07-29T15:20:19;24.50;99.90
14783;DHT22;7483;50.498;12.138;2022-07-29T15:22:47;24.40;99.90
14783;DHT22;7483;50.498;12.138;2022-07-29T15:25:15;24.40;99.90
14783;DHT22;7483;50.498;12.138;2022-07-29T15:27:43;24.40;99.90
14783;DHT22;7483;50.498;12.138;2022-07-29T15:30:18;24.50;99.90
14783;DHT22;7483;50.498;12.138;2022-07-29T15:33:01;24.70;99.90
14783;DHT22;7483;50.498;12.138;2022-07-29T15:35:30;24.70;99.90
14783;DHT22;7483;50.498;12.138;2022-07-29T15:37:58;24.70;99.90
14783;DHT22;7483;50.498;12.138;2022-07-29T15:40:26;24.70;99.90
14783;DHT22;7483;50.498;12.138;2022-07-29T15:42:55;24.60;99.90
14783;DHT22;7483;50.498;12.138;2022-07-29T15:45:24;24.50;99.90
14783;DHT22;7483;50.498;12.138;2022-07-29T15:47:57;24.40;99.90
14783;DHT22;7483;50.498;12.138;2022-07-29T15:50:26;24.40;99.90
14783;DHT22;7483;50.498;12.138;2022-07-29T15:52:54;24.40;99.90
14783;DHT22;7483;50.498;12.138;2022-07-29T15:55:22;24.40;99.90
14783;DHT22;7483;50.498;12.138;2022-07-29T15:57:51;24.50;99.90
14783;DHT22;7483;50.498;12.138;2022-07-29T16:00:25;24.50;99.90
14783;DHT22;7483;50.498;12.138;2022-07-29T16:02:53;24.50;99.90